createdAt,value
2023-03-12T00:02:11.611Z,30.01
2023-03-12T00:04:39.642Z,29.67
2023-03-12T00:07:08.979Z,29.91
2023-03-12T00:09:38.590Z,29.62
2023-03-12T00:12:07.515Z,29.36
2023-03-12T00:14:35.500Z,29.37
2023-03-12T00:17:03.421Z,29.32
2023-03-12T00:19:31.390Z,29.29
2023-03-12T00:21:59.359Z,29.49
2023-03-12T00:24:27.352Z,29.36
2023-03-12T00:26:56.785Z,29.13
2023-03-12T00:29:24.741Z,29.57
2023-03-12T00:31:52.749Z,29.00
2023-03-12T00:34:20.784Z,29.00
2023-03-12T00:36:48.828Z,28.86
2023-03-12T00:39:16.762Z,29.15
2023-03-12T00:41:44.758Z,29.62
2023-03-12T00:44:14.074Z,29.26
2023-03-12T00:46:42.055Z,28.86
2023-03-12T00:49:10.342Z,28.88
2023-03-12T00:51:38.408Z,29.22
2023-03-12T00:54:06.423Z,29.34
2023-03-12T00:56:34.399Z,29.74
2023-03-12T00:59:02.369Z,29.31
2023-03-12T01:01:31.794Z,29.36
2023-03-12T01:04:00.034Z,29.09
2023-03-12T01:06:28.126Z,28.94
2023-03-12T01:08:56.537Z,30.06
2023-03-12T01:11:24.547Z,29.09
2023-03-12T01:13:52.577Z,29.91
2023-03-12T01:16:20.554Z,29.52
2023-03-12T01:18:49.864Z,29.65
2023-03-12T01:21:17.808Z,29.21
2023-03-12T01:23:45.847Z,29.14
2023-03-12T01:26:13.853Z,29.16
2023-03-12T01:28:41.877Z,29.15
2023-03-12T01:31:09.977Z,28.86
2023-03-12T01:33:37.945Z,28.96
2023-03-12T01:36:14.031Z,28.79
2023-03-12T01:38:42.011Z,28.87
2023-03-12T01:41:09.974Z,29.06
2023-03-12T01:43:38.278Z,28.54
2023-03-12T01:46:22.678Z,28.67
2023-03-12T01:48:52.722Z,28.60
2023-03-12T01:51:22.069Z,28.58
2023-03-12T01:53:51.297Z,29.18
2023-03-12T01:56:19.764Z,28.88
2023-03-12T01:58:50.284Z,28.99
2023-03-12T02:01:18.396Z,29.02
2023-03-12T02:03:46.428Z,28.93
2023-03-12T02:06:15.070Z,28.86
2023-03-12T02:08:45.338Z,28.65
2023-03-12T02:11:13.298Z,28.81
2023-03-12T02:13:41.351Z,28.89
2023-03-12T02:16:09.497Z,28.47
2023-03-12T02:18:37.474Z,28.71
2023-03-12T02:21:09.555Z,28.67
2023-03-12T02:23:41.484Z,28.86
2023-03-12T02:26:11.188Z,29.57
2023-03-12T02:28:43.857Z,28.83
2023-03-12T02:31:12.450Z,29.37
2023-03-12T02:33:40.395Z,28.62
2023-03-12T02:36:09.368Z,28.52
2023-03-12T02:38:41.685Z,28.58
2023-03-12T02:41:17.224Z,28.57
2023-03-12T02:43:46.213Z,28.50
2023-03-12T02:46:14.222Z,28.73
2023-03-12T02:48:42.168Z,28.73
2023-03-12T02:51:10.099Z,28.65
2023-03-12T02:53:38.147Z,28.66
2023-03-12T02:56:06.806Z,28.61
2023-03-12T02:58:36.374Z,28.56
2023-03-12T03:01:04.321Z,28.22
2023-03-12T03:03:32.284Z,28.34
2023-03-12T03:06:00.236Z,28.19
2023-03-12T03:08:28.273Z,28.16
2023-03-12T03:10:56.308Z,28.31
2023-03-12T03:13:24.233Z,28.57
2023-03-12T03:15:53.521Z,28.00
2023-03-12T03:18:21.473Z,28.88
2023-03-12T03:20:56.343Z,28.90
2023-03-12T03:23:24.270Z,28.29
2023-03-12T03:25:52.852Z,28.48
2023-03-12T03:28:20.803Z,28.56
2023-03-12T03:30:48.830Z,28.86
2023-03-12T03:33:18.087Z,28.23
2023-03-12T03:35:46.193Z,28.65
2023-03-12T03:38:14.208Z,29.11
2023-03-12T03:40:42.213Z,28.34
2023-03-12T03:43:10.186Z,28.40
2023-03-12T03:45:38.248Z,28.39
2023-03-12T03:48:06.853Z,28.90
2023-03-12T03:50:36.169Z,28.15
2023-03-12T03:53:04.118Z,28.41
2023-03-12T03:55:32.161Z,28.68
2023-03-12T03:58:00.145Z,28.46
2023-03-12T04:00:28.147Z,28.35
2023-03-12T04:02:56.516Z,28.40
2023-03-12T04:05:25.322Z,28.25
2023-03-12T04:07:54.710Z,28.33
2023-03-12T04:10:22.932Z,28.31
2023-03-12T04:12:50.855Z,28.50
2023-03-12T04:15:18.829Z,28.19
2023-03-12T04:17:46.902Z,27.94
2023-03-12T04:20:15.048Z,27.92
2023-03-12T04:22:43.016Z,27.95
2023-03-12T04:25:12.524Z,27.92
2023-03-12T04:27:40.561Z,27.95
2023-03-12T04:30:10.021Z,28.46
2023-03-12T04:32:38.123Z,28.24
2023-03-12T04:35:06.600Z,28.06
2023-03-12T04:37:46.822Z,28.54
2023-03-12T04:40:16.302Z,28.22
2023-03-12T04:42:44.237Z,28.54
2023-03-12T04:45:13.016Z,28.01
2023-03-12T04:47:41.029Z,28.38
2023-03-12T04:50:09.937Z,28.23
2023-03-12T04:52:37.886Z,28.98
2023-03-12T04:55:06.857Z,28.31
2023-03-12T04:57:36.260Z,28.88
2023-03-12T05:00:10.196Z,28.70
2023-03-12T05:02:38.506Z,28.16
2023-03-12T05:05:07.244Z,28.10
2023-03-12T05:07:35.288Z,28.02
2023-03-12T05:10:03.351Z,27.98
2023-03-12T05:12:31.275Z,28.13
2023-03-12T05:15:00.550Z,27.85
2023-03-12T05:17:28.552Z,28.10
2023-03-12T05:19:56.648Z,28.18
2023-03-12T05:22:24.592Z,28.38
2023-03-12T05:24:52.579Z,28.10
2023-03-12T05:27:20.696Z,27.66
2023-03-12T05:29:48.622Z,27.78
2023-03-12T05:32:17.984Z,27.56
2023-03-12T05:34:45.978Z,27.92
2023-03-12T05:37:13.932Z,27.98
2023-03-12T05:39:46.784Z,28.18
2023-03-12T05:42:14.964Z,27.89
2023-03-12T05:44:43.000Z,27.84
2023-03-12T05:47:10.929Z,27.73
2023-03-12T05:49:40.268Z,28.33
2023-03-12T05:52:08.608Z,28.35
2023-03-12T05:54:36.608Z,27.55
2023-03-12T05:57:04.500Z,28.01
2023-03-12T05:59:32.591Z,27.91
2023-03-12T06:02:00.607Z,28.09
2023-03-12T06:04:28.663Z,28.12
2023-03-12T06:06:58.014Z,27.91
2023-03-12T06:09:26.050Z,27.52
2023-03-12T06:11:54.032Z,28.26
2023-03-12T06:14:22.110Z,27.77
2023-03-12T06:16:50.037Z,27.14
2023-03-12T06:19:18.114Z,28.02
2023-03-12T06:21:46.070Z,27.29
2023-03-12T06:24:15.455Z,27.64
2023-03-12T06:26:43.459Z,27.47
2023-03-12T06:29:11.534Z,27.12
2023-03-12T06:31:42.059Z,27.59
2023-03-12T06:34:10.425Z,27.45
2023-03-12T06:36:38.434Z,27.06
2023-03-12T06:39:08.584Z,27.20
2023-03-12T06:41:38.207Z,27.07
2023-03-12T06:44:06.479Z,27.42
2023-03-12T06:46:34.650Z,27.14
2023-03-12T06:49:02.703Z,27.68
2023-03-12T06:51:30.650Z,27.22
2023-03-12T06:54:01.167Z,27.91
2023-03-12T06:56:29.272Z,27.62
2023-03-12T06:58:58.697Z,27.52
2023-03-12T07:01:26.758Z,27.32
2023-03-12T07:03:54.802Z,27.68
2023-03-12T07:06:23.639Z,27.47
2023-03-12T07:08:51.742Z,27.70
2023-03-12T07:11:19.695Z,27.12
2023-03-12T07:13:47.704Z,27.12
2023-03-12T07:16:17.228Z,27.22
2023-03-12T07:18:45.306Z,26.86
2023-03-12T07:21:13.266Z,27.21
2023-03-12T07:23:41.351Z,27.32
2023-03-12T07:26:09.352Z,27.19
2023-03-12T07:28:37.358Z,27.22
2023-03-12T07:31:05.728Z,27.00
2023-03-12T07:33:35.203Z,27.15
2023-03-12T07:36:03.493Z,26.95
2023-03-12T07:38:31.735Z,26.96
2023-03-12T07:41:00.461Z,27.15
2023-03-12T07:43:28.692Z,27.11
2023-03-12T07:45:56.976Z,27.05
2023-03-12T07:48:25.055Z,27.01
2023-03-12T07:50:54.447Z,27.18
2023-03-12T07:53:22.499Z,27.04
2023-03-12T07:55:50.577Z,27.24
2023-03-12T07:58:18.774Z,27.22
2023-03-12T08:00:46.722Z,27.12
2023-03-12T08:03:14.892Z,27.10
2023-03-12T08:05:43.194Z,27.53
2023-03-12T08:08:12.714Z,27.35
2023-03-12T08:10:40.631Z,27.07
2023-03-12T08:13:08.715Z,27.30
2023-03-12T08:15:36.686Z,27.13
2023-03-12T08:18:04.856Z,27.14
2023-03-12T08:20:32.889Z,27.03
2023-03-12T08:23:00.858Z,27.15
2023-03-12T08:25:30.225Z,26.96
2023-03-12T08:27:58.100Z,27.13
2023-03-12T08:30:28.389Z,26.93
2023-03-12T08:33:03.873Z,26.91
2023-03-12T08:35:32.066Z,26.92
2023-03-12T08:38:01.099Z,27.27
2023-03-12T08:40:30.514Z,26.79
2023-03-12T08:42:58.477Z,26.87
2023-03-12T08:45:26.488Z,26.87
2023-03-12T08:48:03.633Z,27.12
2023-03-12T08:50:32.304Z,26.92
2023-03-12T08:53:00.324Z,26.76
2023-03-12T08:55:28.993Z,26.84
2023-03-12T08:57:58.744Z,26.63
2023-03-12T09:00:27.279Z,26.65
2023-03-12T09:02:58.293Z,26.93
2023-03-12T09:05:28.191Z,26.87
2023-03-12T09:07:56.078Z,26.81
2023-03-12T09:10:24.167Z,27.20
2023-03-12T09:12:52.102Z,26.97
2023-03-12T09:15:21.542Z,27.30
2023-03-12T09:17:50.700Z,26.85
2023-03-12T09:20:19.011Z,27.29
2023-03-12T09:22:47.141Z,27.21
2023-03-12T09:25:15.089Z,27.32
2023-03-12T09:27:44.226Z,26.94
2023-03-12T09:30:13.818Z,27.28
2023-03-12T09:32:44.627Z,26.90
2023-03-12T09:35:12.657Z,26.83
2023-03-12T09:37:40.659Z,27.09
2023-03-12T09:40:10.246Z,26.91
2023-03-12T09:42:41.448Z,26.87
2023-03-12T09:45:10.307Z,26.98
2023-03-12T09:47:42.359Z,26.93
2023-03-12T09:50:20.714Z,26.80
2023-03-12T09:52:51.673Z,26.88
2023-03-12T09:55:21.435Z,26.86
2023-03-12T09:57:50.615Z,27.12
2023-03-12T10:00:20.064Z,27.00
2023-03-12T10:02:57.104Z,27.21
2023-03-12T10:05:29.373Z,27.05
2023-03-12T10:08:01.728Z,26.92
2023-03-12T10:10:41.381Z,26.68
2023-03-12T10:13:15.619Z,26.95
2023-03-12T10:15:49.896Z,26.87
2023-03-12T10:18:22.827Z,26.88
2023-03-12T10:20:54.960Z,26.85
2023-03-12T10:23:31.513Z,26.98
2023-03-12T10:26:00.430Z,26.81
2023-03-12T10:28:32.494Z,26.83
2023-03-12T10:31:02.613Z,26.74
2023-03-12T10:33:38.878Z,26.90
2023-03-12T10:36:14.690Z,26.52
2023-03-12T10:38:42.681Z,26.39
2023-03-12T10:41:15.984Z,26.41
2023-03-12T10:43:43.903Z,26.63
2023-03-12T10:46:34.379Z,26.60
2023-03-12T10:49:24.536Z,26.80
2023-03-12T10:51:58.014Z,26.68
2023-03-12T10:54:30.433Z,26.87
2023-03-12T10:56:58.336Z,26.79
2023-03-12T10:59:28.833Z,26.79
2023-03-12T11:01:56.945Z,26.85
2023-03-12T11:04:28.113Z,26.55
2023-03-12T11:07:17.485Z,26.86
2023-03-12T11:09:45.588Z,26.74
2023-03-12T11:12:24.634Z,26.72
2023-03-12T11:14:52.606Z,26.84
2023-03-12T11:17:21.916Z,26.87
2023-03-12T11:19:49.904Z,26.91
2023-03-12T11:22:28.642Z,26.81
2023-03-12T11:24:57.663Z,26.57
2023-03-12T11:27:32.042Z,26.62
2023-03-12T11:29:59.941Z,26.93
2023-03-12T11:32:31.729Z,26.68
2023-03-12T11:34:59.774Z,26.84
2023-03-12T11:37:33.027Z,26.75
2023-03-12T11:40:10.122Z,26.61
2023-03-12T11:42:45.466Z,26.67
2023-03-12T11:45:19.160Z,26.58
2023-03-12T11:47:54.293Z,26.49
2023-03-12T11:50:28.478Z,26.62
2023-03-12T11:53:06.000Z,26.51
2023-03-12T11:55:43.814Z,26.60
2023-03-12T11:58:37.167Z,26.26
2023-03-12T12:01:07.933Z,26.52
2023-03-12T12:03:45.161Z,26.47
2023-03-12T12:06:14.812Z,26.70
2023-03-12T12:08:54.803Z,26.38
2023-03-12T12:11:25.982Z,26.53
2023-03-12T12:14:02.549Z,26.48
2023-03-12T12:16:47.273Z,26.59
2023-03-12T12:19:23.461Z,26.41
2023-03-12T12:22:10.427Z,26.55
2023-03-12T12:24:45.908Z,26.67
2023-03-12T12:27:18.902Z,26.33
2023-03-12T12:30:14.732Z,26.75
2023-03-12T12:32:54.120Z,26.49
2023-03-12T12:35:27.154Z,26.27
2023-03-12T12:37:56.725Z,26.84
2023-03-12T12:40:27.168Z,26.91
2023-03-12T12:42:59.545Z,26.50
2023-03-12T12:45:30.892Z,26.57
2023-03-12T12:48:01.693Z,26.52
2023-03-12T12:50:31.695Z,26.74
2023-03-12T12:53:02.238Z,26.53
2023-03-12T12:55:32.665Z,26.44
2023-03-12T12:58:01.742Z,26.31
2023-03-12T13:00:39.666Z,26.38
2023-03-12T13:03:07.720Z,26.25
2023-03-12T13:05:46.426Z,26.50
2023-03-12T13:08:50.393Z,26.56
2023-03-12T13:11:27.872Z,26.32
2023-03-12T13:14:23.732Z,26.46
2023-03-12T13:16:51.609Z,26.36
2023-03-12T13:19:27.277Z,26.71
2023-03-12T13:22:01.584Z,26.54
2023-03-12T13:24:31.293Z,26.32
2023-03-12T13:27:03.631Z,26.60
2023-03-12T13:29:39.753Z,26.64
2023-03-12T13:32:24.372Z,26.72
2023-03-12T13:34:52.409Z,26.33
2023-03-12T13:37:46.863Z,26.33
2023-03-12T13:40:39.372Z,26.75
2023-03-12T13:43:13.163Z,26.61
2023-03-12T13:45:56.909Z,26.77
2023-03-12T13:48:24.896Z,26.36
2023-03-12T13:50:54.622Z,26.64
2023-03-12T13:53:24.204Z,26.38
2023-03-12T13:56:00.583Z,26.33
2023-03-12T13:58:29.905Z,26.54
2023-03-12T14:00:58.834Z,26.49
2023-03-12T14:03:27.691Z,26.48
2023-03-12T14:05:56.544Z,26.37
2023-03-12T14:08:40.564Z,26.24
2023-03-12T14:11:19.370Z,25.99
2023-03-12T14:14:04.753Z,25.98
2023-03-12T14:16:34.814Z,26.29
2023-03-12T14:19:03.456Z,26.35
2023-03-12T14:21:33.901Z,26.30
2023-03-12T14:24:02.372Z,26.53
2023-03-12T14:26:31.905Z,26.26
2023-03-12T14:29:02.778Z,26.36
2023-03-12T14:31:30.723Z,26.75
2023-03-12T14:34:01.875Z,26.21
2023-03-12T14:36:30.726Z,26.26
2023-03-12T14:39:01.822Z,26.40
2023-03-12T14:41:30.970Z,26.18
2023-03-12T14:44:06.378Z,26.51
2023-03-12T14:46:34.484Z,26.56
2023-03-12T14:49:02.554Z,26.35
2023-03-12T14:51:31.590Z,26.45
2023-03-12T14:54:03.589Z,26.19
2023-03-12T14:56:33.445Z,26.43
2023-03-12T14:59:02.722Z,26.21
2023-03-12T15:01:32.640Z,25.98
2023-03-12T15:04:02.191Z,25.75
2023-03-12T15:06:31.344Z,25.68
2023-03-12T15:08:59.693Z,25.77
2023-03-12T15:11:28.531Z,25.89
2023-03-12T15:13:57.080Z,25.84
2023-03-12T15:16:25.083Z,25.89
2023-03-12T15:18:54.472Z,25.87
2023-03-12T15:21:22.419Z,25.83
2023-03-12T15:23:50.424Z,26.27
2023-03-12T15:26:29.223Z,26.08
2023-03-12T15:28:58.226Z,25.83
2023-03-12T15:31:26.325Z,26.12
2023-03-12T15:34:03.097Z,26.29
2023-03-12T15:36:32.683Z,25.89
2023-03-12T15:39:02.401Z,25.87
2023-03-12T15:41:37.047Z,25.94
2023-03-12T15:44:05.050Z,25.39
2023-03-12T15:46:33.315Z,25.96
2023-03-12T15:49:02.687Z,26.31
2023-03-12T15:51:32.660Z,25.74
2023-03-12T15:54:01.958Z,26.23
2023-03-12T15:56:29.965Z,25.81
2023-03-12T15:59:04.701Z,25.72
2023-03-12T16:01:45.164Z,26.17
2023-03-12T16:04:14.568Z,26.22
2023-03-12T16:06:44.334Z,26.15
2023-03-12T16:09:13.350Z,26.45
2023-03-12T16:11:41.288Z,26.13
2023-03-12T16:14:13.580Z,26.51
2023-03-12T16:16:41.633Z,26.33
2023-03-12T16:19:14.471Z,25.90
2023-03-12T16:21:42.556Z,26.04
2023-03-12T16:24:10.536Z,25.73
2023-03-12T16:26:39.835Z,26.41
2023-03-12T16:29:07.869Z,26.31
2023-03-12T16:31:36.391Z,26.46
2023-03-12T16:34:04.415Z,26.17
2023-03-12T16:36:34.003Z,26.48
2023-03-12T16:39:01.926Z,26.31
2023-03-12T16:41:30.471Z,26.31
2023-03-12T16:43:58.968Z,26.12
2023-03-12T16:46:28.557Z,26.48
2023-03-12T16:48:56.676Z,26.37
2023-03-12T16:51:24.672Z,26.32
2023-03-12T16:54:07.318Z,26.17
2023-03-12T16:56:37.858Z,26.03
2023-03-12T16:59:07.279Z,26.22
2023-03-12T17:01:35.384Z,26.25
2023-03-12T17:04:04.968Z,26.10
2023-03-12T17:06:33.244Z,26.12
2023-03-12T17:09:03.007Z,26.15
2023-03-12T17:11:32.942Z,26.13
2023-03-12T17:14:01.967Z,26.34
2023-03-12T17:16:30.028Z,26.04
2023-03-12T17:18:58.134Z,26.14
2023-03-12T17:21:26.085Z,26.04
2023-03-12T17:23:54.013Z,26.29
2023-03-12T17:26:23.482Z,26.15
2023-03-12T17:28:51.408Z,26.22
2023-03-12T17:31:19.417Z,26.31
2023-03-12T17:33:47.495Z,26.40
2023-03-12T17:36:15.765Z,26.11
2023-03-12T17:38:43.748Z,26.45
2023-03-12T17:41:25.586Z,26.42
2023-03-12T17:43:58.539Z,26.19
2023-03-12T17:46:26.567Z,26.68
2023-03-12T17:48:54.600Z,26.31
2023-03-12T17:51:22.706Z,26.25
2023-03-12T17:53:50.581Z,26.31
2023-03-12T17:56:19.275Z,26.33
2023-03-12T17:58:47.203Z,26.28
2023-03-12T18:01:17.230Z,26.23
2023-03-12T18:03:45.305Z,26.62
2023-03-12T18:06:13.361Z,26.54
2023-03-12T18:08:41.334Z,26.50
2023-03-12T18:11:09.237Z,26.46
2023-03-12T18:13:38.869Z,26.60
2023-03-12T18:16:08.637Z,26.36
2023-03-12T18:18:37.966Z,26.76
2023-03-12T18:21:06.309Z,26.46
2023-03-12T18:23:34.327Z,26.26
2023-03-12T18:26:02.264Z,26.54
2023-03-12T18:28:30.199Z,26.23
2023-03-12T18:30:58.253Z,26.54
2023-03-12T18:33:26.290Z,26.31
2023-03-12T18:35:55.570Z,26.35
2023-03-12T18:38:23.565Z,26.24
2023-03-12T18:40:51.688Z,26.49
2023-03-12T18:43:21.732Z,26.31
2023-03-12T18:45:51.030Z,26.76
2023-03-12T18:48:18.956Z,26.76
2023-03-12T18:50:46.936Z,26.37
2023-03-12T18:53:16.222Z,26.67
2023-03-12T18:55:52.084Z,26.46
2023-03-12T18:58:22.778Z,26.40
2023-03-12T19:00:52.040Z,26.23
2023-03-12T19:03:20.062Z,26.64
2023-03-12T19:05:48.161Z,26.52
2023-03-12T19:08:17.726Z,26.45
2023-03-12T19:10:46.530Z,26.73
2023-03-12T19:13:15.523Z,26.22
2023-03-12T19:15:43.846Z,26.49
2023-03-12T19:18:12.326Z,26.35
2023-03-12T19:20:40.278Z,26.22
2023-03-12T19:23:08.225Z,26.05
2023-03-12T19:25:37.577Z,26.22
2023-03-12T19:28:05.545Z,26.40
2023-03-12T19:30:33.584Z,26.33
2023-03-12T19:33:01.663Z,26.48
2023-03-12T19:35:29.625Z,26.43
2023-03-12T19:37:59.514Z,26.30
2023-03-12T19:40:27.409Z,26.05
2023-03-12T19:42:56.683Z,26.37
2023-03-12T19:45:24.626Z,26.34
2023-03-12T19:47:53.324Z,26.33
2023-03-12T19:50:21.313Z,26.06
2023-03-12T19:52:49.268Z,25.99
2023-03-12T19:55:17.580Z,25.96
2023-03-12T19:57:45.761Z,26.45
2023-03-12T20:00:15.925Z,26.44
2023-03-12T20:02:45.863Z,26.10
2023-03-12T20:05:13.899Z,26.03
2023-03-12T20:07:41.905Z,26.07
2023-03-12T20:10:11.181Z,26.36
2023-03-12T20:12:39.483Z,25.83
2023-03-12T20:15:08.459Z,26.02
2023-03-12T20:17:38.040Z,25.88
2023-03-12T20:20:08.417Z,26.09
2023-03-12T20:22:37.062Z,26.18
2023-03-12T20:25:05.307Z,26.27
2023-03-12T20:27:34.202Z,26.02
2023-03-12T20:30:03.724Z,26.11
2023-03-12T20:32:31.913Z,25.86
2023-03-12T20:35:01.321Z,26.22
2023-03-12T20:37:29.315Z,26.29
2023-03-12T20:39:58.003Z,25.77
2023-03-12T20:42:25.957Z,26.16
2023-03-12T20:44:53.873Z,26.33
2023-03-12T20:47:22.222Z,26.08
2023-03-12T20:49:50.191Z,25.87
2023-03-12T20:52:19.544Z,25.84
2023-03-12T20:54:47.487Z,26.26
2023-03-12T20:57:15.421Z,25.95
2023-03-12T20:59:43.404Z,25.88
2023-03-12T21:02:13.971Z,25.84
2023-03-12T21:04:42.108Z,26.12
2023-03-12T21:07:10.145Z,25.95
2023-03-12T21:09:39.569Z,25.91
2023-03-12T21:12:07.870Z,25.92
2023-03-12T21:14:35.974Z,26.17
2023-03-12T21:17:04.183Z,25.98
2023-03-12T21:19:32.350Z,25.76
2023-03-12T21:22:00.330Z,25.85
2023-03-12T21:24:28.440Z,25.93
2023-03-12T21:26:57.760Z,25.87
2023-03-12T21:29:25.767Z,25.77
2023-03-12T21:31:53.911Z,25.94
2023-03-12T21:34:21.911Z,25.84
2023-03-12T21:36:49.878Z,26.10
2023-03-12T21:39:18.879Z,25.94
2023-03-12T21:41:46.860Z,26.00
2023-03-12T21:44:16.775Z,26.03
2023-03-12T21:46:45.195Z,25.98
2023-03-12T21:49:14.040Z,26.12
2023-03-12T21:51:42.093Z,25.90
2023-03-12T21:54:09.995Z,26.10
2023-03-12T21:56:37.902Z,26.24
2023-03-12T21:59:05.788Z,26.23
2023-03-12T22:01:35.217Z,26.20
2023-03-12T22:04:05.588Z,26.16
2023-03-12T22:06:33.965Z,26.34
2023-03-12T22:09:01.966Z,26.23
2023-03-12T22:11:29.996Z,26.33
2023-03-12T22:13:57.899Z,26.21
2023-03-12T22:16:25.908Z,26.39
2023-03-12T22:18:55.296Z,26.27
2023-03-12T22:21:23.960Z,26.02
2023-03-12T22:23:54.188Z,26.44
2023-03-12T22:26:22.631Z,26.34
2023-03-12T22:28:51.497Z,26.14
2023-03-12T22:31:20.124Z,26.05
2023-03-12T22:33:48.215Z,26.18
2023-03-12T22:36:17.780Z,26.23
2023-03-12T22:38:47.751Z,26.33
2023-03-12T22:41:16.718Z,26.59
2023-03-12T22:43:44.902Z,26.42
2023-03-12T22:46:12.957Z,26.37
2023-03-12T22:48:40.855Z,26.24
2023-03-12T22:51:08.958Z,26.59
2023-03-12T22:53:38.277Z,26.54
2023-03-12T22:56:07.321Z,26.31
2023-03-12T22:58:35.368Z,26.21
2023-03-12T23:01:03.812Z,26.21
2023-03-12T23:03:33.527Z,26.61
2023-03-12T23:06:01.593Z,26.43
2023-03-12T23:08:30.181Z,26.45
2023-03-12T23:11:00.456Z,26.52
2023-03-12T23:13:28.982Z,26.89
2023-03-12T23:15:56.926Z,26.78
2023-03-12T23:18:24.993Z,26.39
2023-03-12T23:20:58.921Z,26.61
2023-03-12T23:23:26.915Z,26.37
2023-03-12T23:25:55.035Z,26.38
2023-03-12T23:28:24.391Z,26.46
2023-03-12T23:30:56.566Z,26.41
2023-03-12T23:33:24.878Z,26.48
2023-03-12T23:35:56.866Z,26.43
2023-03-12T23:38:25.231Z,26.69
2023-03-12T23:40:53.125Z,26.62
2023-03-12T23:43:21.019Z,26.57
2023-03-12T23:45:56.668Z,26.41
2023-03-12T23:48:24.772Z,26.62
2023-03-12T23:50:52.660Z,26.76
2023-03-12T23:53:20.614Z,26.36
2023-03-12T23:55:58.140Z,26.42
2023-03-12T23:58:26.242Z,26.52
